sensor_id;sensor_type;location;lat;lon;timestamp;P1;durP1;ratioP1;P2;durP2;ratioP2
10831;SDS011;5469;48.574;8.768;2023-04-06T00:01:46;1.53;;;1.43;;
10831;SDS011;5469;48.574;8.768;2023-04-06T00:04:20;1.40;;;1.20;;
10831;SDS011;5469;48.574;8.768;2023-04-06T00:06:53;1.20;;;1.10;;
10831;SDS011;5469;48.574;8.768;2023-04-06T00:09:28;1.00;;;1.00;;
10831;SDS011;5469;48.574;8.768;2023-04-06T00:12:01;2.43;;;1.63;;
10831;SDS011;5469;48.574;8.768;2023-04-06T00:14:36;1.30;;;0.90;;
10831;SDS011;5469;48.574;8.768;2023-04-06T00:17:10;3.80;;;2.27;;
10831;SDS011;5469;48.574;8.768;2023-04-06T00:19:43;1.23;;;1.13;;
10831;SDS011;5469;48.574;8.768;2023-04-06T00:22:17;1.40;;;1.30;;
10831;SDS011;5469;48.574;8.768;2023-04-06T00:24:50;1.73;;;1.40;;
10831;SDS011;5469;48.574;8.768;2023-04-06T00:27:24;1.27;;;1.23;;
10831;SDS011;5469;48.574;8.768;2023-04-06T00:29:58;2.87;;;1.90;;
10831;SDS011;5469;48.574;8.768;2023-04-06T00:32:32;1.60;;;1.03;;
10831;SDS011;5469;48.574;8.768;2023-04-06T00:35:06;1.43;;;1.27;;
10831;SDS011;5469;48.574;8.768;2023-04-06T00:37:39;4.73;;;1.87;;
10831;SDS011;5469;48.574;8.768;2023-04-06T00:40:13;2.23;;;1.00;;
10831;SDS011;5469;48.574;8.768;2023-04-06T00:42:47;0.93;;;0.90;;
10831;SDS011;5469;48.574;8.768;2023-04-06T00:45:22;1.43;;;1.27;;
10831;SDS011;5469;48.574;8.768;2023-04-06T00:47:56;0.90;;;0.90;;
10831;SDS011;5469;48.574;8.768;2023-04-06T00:50:29;1.17;;;0.93;;
10831;SDS011;5469;48.574;8.768;2023-04-06T00:53:03;1.33;;;1.23;;
10831;SDS011;5469;48.574;8.768;2023-04-06T00:55:36;2.10;;;1.37;;
10831;SDS011;5469;48.574;8.768;2023-04-06T00:58:11;2.40;;;1.33;;
10831;SDS011;5469;48.574;8.768;2023-04-06T01:00:46;1.70;;;1.03;;
10831;SDS011;5469;48.574;8.768;2023-04-06T01:03:20;1.23;;;1.03;;
10831;SDS011;5469;48.574;8.768;2023-04-06T01:05:54;1.30;;;1.10;;
10831;SDS011;5469;48.574;8.768;2023-04-06T01:08:29;0.83;;;0.73;;
10831;SDS011;5469;48.574;8.768;2023-04-06T01:11:03;1.80;;;1.20;;
10831;SDS011;5469;48.574;8.768;2023-04-06T01:13:37;1.13;;;1.10;;
10831;SDS011;5469;48.574;8.768;2023-04-06T01:16:11;0.77;;;0.77;;
10831;SDS011;5469;48.574;8.768;2023-04-06T01:18:45;0.53;;;0.53;;
10831;SDS011;5469;48.574;8.768;2023-04-06T01:21:19;1.60;;;1.50;;
10831;SDS011;5469;48.574;8.768;2023-04-06T01:23:54;1.73;;;0.90;;
10831;SDS011;5469;48.574;8.768;2023-04-06T01:26:27;1.10;;;0.83;;
10831;SDS011;5469;48.574;8.768;2023-04-06T01:29:01;3.63;;;1.30;;
10831;SDS011;5469;48.574;8.768;2023-04-06T01:31:35;1.87;;;1.00;;
10831;SDS011;5469;48.574;8.768;2023-04-06T01:34:09;2.97;;;1.50;;
10831;SDS011;5469;48.574;8.768;2023-04-06T01:36:42;2.40;;;1.50;;
10831;SDS011;5469;48.574;8.768;2023-04-06T01:39:17;2.00;;;1.27;;
10831;SDS011;5469;48.574;8.768;2023-04-06T01:41:51;1.63;;;1.33;;
10831;SDS011;5469;48.574;8.768;2023-04-06T01:44:25;0.70;;;0.70;;
10831;SDS011;5469;48.574;8.768;2023-04-06T01:46:59;1.93;;;1.30;;
10831;SDS011;5469;48.574;8.768;2023-04-06T01:49:32;0.77;;;0.77;;
10831;SDS011;5469;48.574;8.768;2023-04-06T01:52:06;1.00;;;0.90;;
10831;SDS011;5469;48.574;8.768;2023-04-06T01:54:41;1.07;;;0.80;;
10831;SDS011;5469;48.574;8.768;2023-04-06T01:57:14;1.27;;;1.07;;
10831;SDS011;5469;48.574;8.768;2023-04-06T01:59:47;1.73;;;1.40;;
10831;SDS011;5469;48.574;8.768;2023-04-06T02:02:21;0.73;;;0.70;;
10831;SDS011;5469;48.574;8.768;2023-04-06T02:04:55;1.47;;;0.90;;
10831;SDS011;5469;48.574;8.768;2023-04-06T02:07:28;0.77;;;0.77;;
10831;SDS011;5469;48.574;8.768;2023-04-06T02:10:03;1.17;;;1.07;;
10831;SDS011;5469;48.574;8.768;2023-04-06T02:12:43;0.60;;;0.57;;
10831;SDS011;5469;48.574;8.768;2023-04-06T02:15:17;1.43;;;1.00;;
10831;SDS011;5469;48.574;8.768;2023-04-06T02:17:50;0.67;;;0.67;;
10831;SDS011;5469;48.574;8.768;2023-04-06T02:20:24;1.43;;;1.17;;
10831;SDS011;5469;48.574;8.768;2023-04-06T02:22:58;0.77;;;0.63;;
10831;SDS011;5469;48.574;8.768;2023-04-06T02:25:34;0.90;;;0.90;;
10831;SDS011;5469;48.574;8.768;2023-04-06T02:28:07;2.20;;;1.03;;
10831;SDS011;5469;48.574;8.768;2023-04-06T02:30:41;1.97;;;1.50;;
10831;SDS011;5469;48.574;8.768;2023-04-06T02:33:14;1.40;;;0.90;;
10831;SDS011;5469;48.574;8.768;2023-04-06T02:35:48;1.67;;;0.83;;
10831;SDS011;5469;48.574;8.768;2023-04-06T02:38:21;0.60;;;0.57;;
10831;SDS011;5469;48.574;8.768;2023-04-06T02:40:56;2.63;;;1.27;;
10831;SDS011;5469;48.574;8.768;2023-04-06T02:43:30;1.60;;;1.10;;
10831;SDS011;5469;48.574;8.768;2023-04-06T02:46:03;1.57;;;0.90;;
10831;SDS011;5469;48.574;8.768;2023-04-06T02:48:37;1.77;;;1.00;;
10831;SDS011;5469;48.574;8.768;2023-04-06T02:51:10;1.33;;;0.97;;
10831;SDS011;5469;48.574;8.768;2023-04-06T02:53:44;0.93;;;0.77;;
10831;SDS011;5469;48.574;8.768;2023-04-06T02:56:19;0.90;;;0.90;;
10831;SDS011;5469;48.574;8.768;2023-04-06T02:58:53;1.63;;;0.80;;
10831;SDS011;5469;48.574;8.768;2023-04-06T03:01:26;1.50;;;1.00;;
10831;SDS011;5469;48.574;8.768;2023-04-06T03:04:00;2.17;;;1.07;;
10831;SDS011;5469;48.574;8.768;2023-04-06T03:06:33;2.80;;;1.27;;
10831;SDS011;5469;48.574;8.768;2023-04-06T03:09:07;1.23;;;0.87;;
10831;SDS011;5469;48.574;8.768;2023-04-06T03:11:42;0.57;;;0.53;;
10831;SDS011;5469;48.574;8.768;2023-04-06T03:14:15;1.60;;;0.93;;
10831;SDS011;5469;48.574;8.768;2023-04-06T03:16:53;3.07;;;1.10;;
10831;SDS011;5469;48.574;8.768;2023-04-06T03:19:26;1.43;;;0.90;;
10831;SDS011;5469;48.574;8.768;2023-04-06T03:22:00;1.50;;;1.30;;
10831;SDS011;5469;48.574;8.768;2023-04-06T03:24:33;0.70;;;0.70;;
10831;SDS011;5469;48.574;8.768;2023-04-06T03:27:08;0.40;;;0.40;;
10831;SDS011;5469;48.574;8.768;2023-04-06T03:29:42;1.27;;;0.50;;
10831;SDS011;5469;48.574;8.768;2023-04-06T03:32:15;1.23;;;0.80;;
10831;SDS011;5469;48.574;8.768;2023-04-06T03:34:49;0.73;;;0.73;;
10831;SDS011;5469;48.574;8.768;2023-04-06T03:37:22;1.40;;;0.83;;
10831;SDS011;5469;48.574;8.768;2023-04-06T03:39:56;0.60;;;0.60;;
10831;SDS011;5469;48.574;8.768;2023-04-06T03:42:30;3.67;;;1.00;;
10831;SDS011;5469;48.574;8.768;2023-04-06T03:45:04;0.67;;;0.67;;
10831;SDS011;5469;48.574;8.768;2023-04-06T03:47:39;1.23;;;1.10;;
10831;SDS011;5469;48.574;8.768;2023-04-06T03:50:12;1.47;;;0.90;;
10831;SDS011;5469;48.574;8.768;2023-04-06T03:52:47;0.47;;;0.47;;
10831;SDS011;5469;48.574;8.768;2023-04-06T03:55:20;0.57;;;0.40;;
10831;SDS011;5469;48.574;8.768;2023-04-06T03:57:55;0.73;;;0.60;;
10831;SDS011;5469;48.574;8.768;2023-04-06T04:00:29;1.03;;;0.60;;
10831;SDS011;5469;48.574;8.768;2023-04-06T04:03:04;0.73;;;0.53;;
10831;SDS011;5469;48.574;8.768;2023-04-06T04:05:37;0.60;;;0.60;;
10831;SDS011;5469;48.574;8.768;2023-04-06T04:08:11;0.80;;;0.53;;
10831;SDS011;5469;48.574;8.768;2023-04-06T04:10:44;0.77;;;0.73;;
10831;SDS011;5469;48.574;8.768;2023-04-06T04:13:19;0.63;;;0.50;;
10831;SDS011;5469;48.574;8.768;2023-04-06T04:15:53;0.97;;;0.90;;
10831;SDS011;5469;48.574;8.768;2023-04-06T04:18:26;0.43;;;0.43;;
10831;SDS011;5469;48.574;8.768;2023-04-06T04:21:00;1.03;;;0.73;;
10831;SDS011;5469;48.574;8.768;2023-04-06T04:23:33;1.13;;;0.60;;
10831;SDS011;5469;48.574;8.768;2023-04-06T04:26:07;2.17;;;1.17;;
10831;SDS011;5469;48.574;8.768;2023-04-06T04:28:41;1.00;;;1.00;;
10831;SDS011;5469;48.574;8.768;2023-04-06T04:31:15;1.50;;;0.60;;
10831;SDS011;5469;48.574;8.768;2023-04-06T04:33:49;1.90;;;0.70;;
10831;SDS011;5469;48.574;8.768;2023-04-06T04:36:23;1.00;;;0.70;;
10831;SDS011;5469;48.574;8.768;2023-04-06T04:38:57;0.83;;;0.60;;
10831;SDS011;5469;48.574;8.768;2023-04-06T04:41:32;1.80;;;1.33;;
10831;SDS011;5469;48.574;8.768;2023-04-06T04:44:07;0.43;;;0.43;;
10831;SDS011;5469;48.574;8.768;2023-04-06T04:46:41;0.83;;;0.47;;
10831;SDS011;5469;48.574;8.768;2023-04-06T04:49:14;1.97;;;0.97;;
10831;SDS011;5469;48.574;8.768;2023-04-06T04:51:48;1.50;;;1.13;;
10831;SDS011;5469;48.574;8.768;2023-04-06T04:54:24;1.27;;;1.13;;
10831;SDS011;5469;48.574;8.768;2023-04-06T04:56:57;3.90;;;2.73;;
10831;SDS011;5469;48.574;8.768;2023-04-06T04:59:32;0.70;;;0.70;;
10831;SDS011;5469;48.574;8.768;2023-04-06T05:02:06;0.40;;;0.33;;
10831;SDS011;5469;48.574;8.768;2023-04-06T05:04:40;0.97;;;0.80;;
10831;SDS011;5469;48.574;8.768;2023-04-06T05:07:13;0.50;;;0.40;;
10831;SDS011;5469;48.574;8.768;2023-04-06T05:09:50;0.60;;;0.50;;
10831;SDS011;5469;48.574;8.768;2023-04-06T05:12:23;0.47;;;0.47;;
10831;SDS011;5469;48.574;8.768;2023-04-06T05:15:00;1.97;;;0.73;;
10831;SDS011;5469;48.574;8.768;2023-04-06T05:17:33;0.67;;;0.67;;
10831;SDS011;5469;48.574;8.768;2023-04-06T05:20:07;0.37;;;0.37;;
10831;SDS011;5469;48.574;8.768;2023-04-06T05:22:41;0.80;;;0.80;;
10831;SDS011;5469;48.574;8.768;2023-04-06T05:25:14;0.47;;;0.47;;
10831;SDS011;5469;48.574;8.768;2023-04-06T05:27:48;0.50;;;0.50;;
10831;SDS011;5469;48.574;8.768;2023-04-06T05:30:23;1.30;;;1.20;;
10831;SDS011;5469;48.574;8.768;2023-04-06T05:32:57;0.37;;;0.37;;
10831;SDS011;5469;48.574;8.768;2023-04-06T05:35:31;1.13;;;0.67;;
10831;SDS011;5469;48.574;8.768;2023-04-06T05:38:07;0.30;;;0.30;;
10831;SDS011;5469;48.574;8.768;2023-04-06T05:40:41;2.30;;;0.70;;
10831;SDS011;5469;48.574;8.768;2023-04-06T05:43:14;1.70;;;0.87;;
10831;SDS011;5469;48.574;8.768;2023-04-06T05:45:49;1.33;;;0.63;;
10831;SDS011;5469;48.574;8.768;2023-04-06T05:48:23;0.53;;;0.43;;
10831;SDS011;5469;48.574;8.768;2023-04-06T05:50:56;0.73;;;0.60;;
10831;SDS011;5469;48.574;8.768;2023-04-06T05:53:30;0.60;;;0.40;;
10831;SDS011;5469;48.574;8.768;2023-04-06T05:56:04;0.60;;;0.43;;
10831;SDS011;5469;48.574;8.768;2023-04-06T05:58:38;0.40;;;0.40;;
10831;SDS011;5469;48.574;8.768;2023-04-06T06:01:13;0.53;;;0.50;;
10831;SDS011;5469;48.574;8.768;2023-04-06T06:03:46;0.80;;;0.47;;
10831;SDS011;5469;48.574;8.768;2023-04-06T06:06:20;1.03;;;0.77;;
10831;SDS011;5469;48.574;8.768;2023-04-06T06:08:53;1.80;;;1.70;;
10831;SDS011;5469;48.574;8.768;2023-04-06T06:11:27;0.70;;;0.70;;
10831;SDS011;5469;48.574;8.768;2023-04-06T06:14:01;1.60;;;0.77;;
10831;SDS011;5469;48.574;8.768;2023-04-06T06:16:36;0.50;;;0.50;;
10831;SDS011;5469;48.574;8.768;2023-04-06T06:19:09;1.37;;;0.60;;
10831;SDS011;5469;48.574;8.768;2023-04-06T06:21:43;1.03;;;0.70;;
10831;SDS011;5469;48.574;8.768;2023-04-06T06:24:17;0.67;;;0.50;;
10831;SDS011;5469;48.574;8.768;2023-04-06T06:26:50;1.67;;;1.20;;
10831;SDS011;5469;48.574;8.768;2023-04-06T06:29:23;1.53;;;0.93;;
10831;SDS011;5469;48.574;8.768;2023-04-06T06:31:59;1.50;;;0.53;;
10831;SDS011;5469;48.574;8.768;2023-04-06T06:34:32;1.70;;;0.80;;
10831;SDS011;5469;48.574;8.768;2023-04-06T06:37:05;1.03;;;0.90;;
10831;SDS011;5469;48.574;8.768;2023-04-06T06:39:39;1.53;;;1.37;;
10831;SDS011;5469;48.574;8.768;2023-04-06T06:42:13;0.50;;;0.47;;
10831;SDS011;5469;48.574;8.768;2023-04-06T06:44:46;7.83;;;1.03;;
10831;SDS011;5469;48.574;8.768;2023-04-06T06:47:21;2.40;;;1.17;;
10831;SDS011;5469;48.574;8.768;2023-04-06T06:49:55;1.17;;;0.73;;
10831;SDS011;5469;48.574;8.768;2023-04-06T06:52:28;0.83;;;0.60;;
10831;SDS011;5469;48.574;8.768;2023-04-06T06:55:02;0.63;;;0.50;;
10831;SDS011;5469;48.574;8.768;2023-04-06T06:57:36;1.23;;;0.87;;
10831;SDS011;5469;48.574;8.768;2023-04-06T07:00:10;2.07;;;1.10;;
10831;SDS011;5469;48.574;8.768;2023-04-06T07:02:46;1.47;;;1.10;;
10831;SDS011;5469;48.574;8.768;2023-04-06T07:05:21;0.53;;;0.50;;
10831;SDS011;5469;48.574;8.768;2023-04-06T07:07:55;0.83;;;0.80;;
10831;SDS011;5469;48.574;8.768;2023-04-06T07:10:29;1.00;;;0.73;;
10831;SDS011;5469;48.574;8.768;2023-04-06T07:13:02;0.70;;;0.70;;
10831;SDS011;5469;48.574;8.768;2023-04-06T07:15:36;1.73;;;0.77;;
10831;SDS011;5469;48.574;8.768;2023-04-06T07:18:11;2.43;;;0.80;;
10831;SDS011;5469;48.574;8.768;2023-04-06T07:20:44;1.33;;;0.70;;
10831;SDS011;5469;48.574;8.768;2023-04-06T07:23:18;0.73;;;0.73;;
10831;SDS011;5469;48.574;8.768;2023-04-06T07:25:52;0.33;;;0.23;;
10831;SDS011;5469;48.574;8.768;2023-04-06T07:28:26;3.37;;;1.37;;
10831;SDS011;5469;48.574;8.768;2023-04-06T07:30:59;1.17;;;0.70;;
10831;SDS011;5469;48.574;8.768;2023-04-06T07:33:34;1.13;;;0.90;;
10831;SDS011;5469;48.574;8.768;2023-04-06T07:36:08;1.50;;;0.90;;
10831;SDS011;5469;48.574;8.768;2023-04-06T07:38:41;0.53;;;0.53;;
10831;SDS011;5469;48.574;8.768;2023-04-06T07:41:15;1.37;;;0.90;;
10831;SDS011;5469;48.574;8.768;2023-04-06T07:43:48;2.20;;;1.10;;
10831;SDS011;5469;48.574;8.768;2023-04-06T07:46:22;1.07;;;0.80;;
10831;SDS011;5469;48.574;8.768;2023-04-06T07:48:57;2.17;;;1.40;;
10831;SDS011;5469;48.574;8.768;2023-04-06T07:51:32;1.83;;;1.10;;
10831;SDS011;5469;48.574;8.768;2023-04-06T07:54:08;1.03;;;0.80;;
10831;SDS011;5469;48.574;8.768;2023-04-06T07:56:41;2.03;;;1.80;;
10831;SDS011;5469;48.574;8.768;2023-04-06T07:59:15;2.60;;;1.40;;
10831;SDS011;5469;48.574;8.768;2023-04-06T08:01:48;1.50;;;1.40;;
10831;SDS011;5469;48.574;8.768;2023-04-06T08:04:23;2.40;;;0.93;;
10831;SDS011;5469;48.574;8.768;2023-04-06T08:06:57;2.00;;;0.93;;
10831;SDS011;5469;48.574;8.768;2023-04-06T08:09:30;1.00;;;0.90;;
10831;SDS011;5469;48.574;8.768;2023-04-06T08:12:04;0.83;;;0.67;;
10831;SDS011;5469;48.574;8.768;2023-04-06T08:14:37;1.67;;;0.90;;
10831;SDS011;5469;48.574;8.768;2023-04-06T08:17:11;1.10;;;1.00;;
10831;SDS011;5469;48.574;8.768;2023-04-06T08:19:45;1.33;;;0.80;;
10831;SDS011;5469;48.574;8.768;2023-04-06T08:22:19;1.33;;;1.10;;
10831;SDS011;5469;48.574;8.768;2023-04-06T08:24:52;0.93;;;0.93;;
10831;SDS011;5469;48.574;8.768;2023-04-06T08:27:26;2.13;;;1.60;;
10831;SDS011;5469;48.574;8.768;2023-04-06T08:30:00;1.23;;;0.80;;
10831;SDS011;5469;48.574;8.768;2023-04-06T08:32:33;1.47;;;0.83;;
10831;SDS011;5469;48.574;8.768;2023-04-06T08:35:09;2.47;;;1.50;;
10831;SDS011;5469;48.574;8.768;2023-04-06T08:37:42;1.03;;;1.00;;
10831;SDS011;5469;48.574;8.768;2023-04-06T08:40:16;2.00;;;1.27;;
10831;SDS011;5469;48.574;8.768;2023-04-06T08:42:50;1.77;;;1.27;;
10831;SDS011;5469;48.574;8.768;2023-04-06T08:45:27;0.73;;;0.73;;
10831;SDS011;5469;48.574;8.768;2023-04-06T08:48:00;1.23;;;1.13;;
10831;SDS011;5469;48.574;8.768;2023-04-06T08:50:38;1.63;;;0.90;;
10831;SDS011;5469;48.574;8.768;2023-04-06T08:53:12;1.50;;;0.87;;
10831;SDS011;5469;48.574;8.768;2023-04-06T08:55:47;2.37;;;1.40;;
10831;SDS011;5469;48.574;8.768;2023-04-06T08:58:20;1.67;;;1.10;;
10831;SDS011;5469;48.574;8.768;2023-04-06T09:00:55;2.53;;;1.60;;
10831;SDS011;5469;48.574;8.768;2023-04-06T09:03:30;2.43;;;1.63;;
10831;SDS011;5469;48.574;8.768;2023-04-06T09:06:08;1.37;;;1.27;;
10831;SDS011;5469;48.574;8.768;2023-04-06T09:08:42;1.03;;;1.03;;
10831;SDS011;5469;48.574;8.768;2023-04-06T09:11:16;1.90;;;1.30;;
10831;SDS011;5469;48.574;8.768;2023-04-06T09:13:50;1.27;;;1.17;;
10831;SDS011;5469;48.574;8.768;2023-04-06T09:16:24;2.00;;;1.10;;
10831;SDS011;5469;48.574;8.768;2023-04-06T09:19:03;1.17;;;1.07;;
10831;SDS011;5469;48.574;8.768;2023-04-06T09:21:39;1.90;;;1.63;;
10831;SDS011;5469;48.574;8.768;2023-04-06T09:24:12;1.90;;;1.30;;
10831;SDS011;5469;48.574;8.768;2023-04-06T09:26:46;1.47;;;1.37;;
10831;SDS011;5469;48.574;8.768;2023-04-06T09:29:23;2.23;;;0.87;;
10831;SDS011;5469;48.574;8.768;2023-04-06T09:32:01;2.33;;;1.43;;
10831;SDS011;5469;48.574;8.768;2023-04-06T09:34:37;3.13;;;1.67;;
10831;SDS011;5469;48.574;8.768;2023-04-06T09:37:16;1.63;;;1.43;;
10831;SDS011;5469;48.574;8.768;2023-04-06T09:40:01;1.67;;;1.20;;
10831;SDS011;5469;48.574;8.768;2023-04-06T09:42:36;2.40;;;1.50;;
10831;SDS011;5469;48.574;8.768;2023-04-06T09:45:09;1.03;;;0.93;;
10831;SDS011;5469;48.574;8.768;2023-04-06T09:47:44;1.67;;;1.40;;
10831;SDS011;5469;48.574;8.768;2023-04-06T09:50:19;0.97;;;0.83;;
10831;SDS011;5469;48.574;8.768;2023-04-06T09:52:55;0.73;;;0.73;;
10831;SDS011;5469;48.574;8.768;2023-04-06T09:55:33;1.60;;;1.50;;
10831;SDS011;5469;48.574;8.768;2023-04-06T09:58:09;2.83;;;1.13;;
10831;SDS011;5469;48.574;8.768;2023-04-06T10:00:47;13.70;;;1.53;;
10831;SDS011;5469;48.574;8.768;2023-04-06T10:03:26;1.63;;;0.93;;
10831;SDS011;5469;48.574;8.768;2023-04-06T10:06:10;2.27;;;1.47;;
10831;SDS011;5469;48.574;8.768;2023-04-06T10:08:47;2.90;;;1.47;;
10831;SDS011;5469;48.574;8.768;2023-04-06T10:11:26;2.27;;;1.40;;
10831;SDS011;5469;48.574;8.768;2023-04-06T10:14:00;4.13;;;1.60;;
10831;SDS011;5469;48.574;8.768;2023-04-06T10:16:33;2.43;;;1.50;;
10831;SDS011;5469;48.574;8.768;2023-04-06T10:19:09;2.73;;;1.97;;
10831;SDS011;5469;48.574;8.768;2023-04-06T10:21:46;2.70;;;1.70;;
10831;SDS011;5469;48.574;8.768;2023-04-06T10:24:25;2.97;;;1.37;;
10831;SDS011;5469;48.574;8.768;2023-04-06T10:26:58;2.17;;;1.83;;
10831;SDS011;5469;48.574;8.768;2023-04-06T10:29:46;1.60;;;1.40;;
10831;SDS011;5469;48.574;8.768;2023-04-06T10:32:20;4.17;;;1.80;;
10831;SDS011;5469;48.574;8.768;2023-04-06T10:35:05;2.03;;;1.20;;
10831;SDS011;5469;48.574;8.768;2023-04-06T10:37:47;1.40;;;1.30;;
10831;SDS011;5469;48.574;8.768;2023-04-06T10:40:24;1.37;;;1.27;;
10831;SDS011;5469;48.574;8.768;2023-04-06T10:43:06;2.03;;;1.63;;
10831;SDS011;5469;48.574;8.768;2023-04-06T10:45:41;2.07;;;1.63;;
10831;SDS011;5469;48.574;8.768;2023-04-06T10:48:15;3.80;;;2.00;;
10831;SDS011;5469;48.574;8.768;2023-04-06T10:50:50;1.83;;;1.70;;
10831;SDS011;5469;48.574;8.768;2023-04-06T10:53:25;1.53;;;1.40;;
10831;SDS011;5469;48.574;8.768;2023-04-06T10:56:01;6.20;;;2.43;;
10831;SDS011;5469;48.574;8.768;2023-04-06T10:58:37;8.50;;;2.30;;
10831;SDS011;5469;48.574;8.768;2023-04-06T11:01:10;1.53;;;1.43;;
10831;SDS011;5469;48.574;8.768;2023-04-06T11:03:44;2.63;;;1.93;;
10831;SDS011;5469;48.574;8.768;2023-04-06T11:06:18;6.07;;;2.30;;
10831;SDS011;5469;48.574;8.768;2023-04-06T11:08:52;1.93;;;1.80;;
10831;SDS011;5469;48.574;8.768;2023-04-06T11:11:28;2.97;;;2.17;;
10831;SDS011;5469;48.574;8.768;2023-04-06T11:14:01;2.57;;;2.20;;
10831;SDS011;5469;48.574;8.768;2023-04-06T11:16:35;1.60;;;1.50;;
10831;SDS011;5469;48.574;8.768;2023-04-06T11:19:08;3.63;;;2.27;;
10831;SDS011;5469;48.574;8.768;2023-04-06T11:21:44;1.77;;;1.63;;
10831;SDS011;5469;48.574;8.768;2023-04-06T11:24:20;2.87;;;1.80;;
10831;SDS011;5469;48.574;8.768;2023-04-06T11:26:56;2.13;;;1.93;;
10831;SDS011;5469;48.574;8.768;2023-04-06T11:29:32;2.20;;;1.57;;
10831;SDS011;5469;48.574;8.768;2023-04-06T11:32:08;4.10;;;2.43;;
10831;SDS011;5469;48.574;8.768;2023-04-06T11:34:41;2.47;;;1.67;;
10831;SDS011;5469;48.574;8.768;2023-04-06T11:37:15;2.53;;;1.70;;
10831;SDS011;5469;48.574;8.768;2023-04-06T11:39:49;2.37;;;2.17;;
10831;SDS011;5469;48.574;8.768;2023-04-06T11:42:25;4.67;;;2.10;;
10831;SDS011;5469;48.574;8.768;2023-04-06T11:44:59;2.63;;;2.03;;
10831;SDS011;5469;48.574;8.768;2023-04-06T11:47:34;3.77;;;1.80;;
10831;SDS011;5469;48.574;8.768;2023-04-06T11:50:09;2.90;;;1.80;;
10831;SDS011;5469;48.574;8.768;2023-04-06T11:52:43;1.33;;;1.23;;
10831;SDS011;5469;48.574;8.768;2023-04-06T11:55:17;1.80;;;1.70;;
10831;SDS011;5469;48.574;8.768;2023-04-06T11:57:53;3.67;;;1.93;;
10831;SDS011;5469;48.574;8.768;2023-04-06T12:00:27;2.13;;;1.80;;
10831;SDS011;5469;48.574;8.768;2023-04-06T12:03:06;2.70;;;1.80;;
10831;SDS011;5469;48.574;8.768;2023-04-06T12:05:39;4.17;;;1.87;;
10831;SDS011;5469;48.574;8.768;2023-04-06T12:08:13;3.83;;;2.17;;
10831;SDS011;5469;48.574;8.768;2023-04-06T12:10:46;2.83;;;1.73;;
10831;SDS011;5469;48.574;8.768;2023-04-06T12:13:21;2.20;;;1.90;;
10831;SDS011;5469;48.574;8.768;2023-04-06T12:15:55;2.27;;;1.90;;
10831;SDS011;5469;48.574;8.768;2023-04-06T12:18:29;1.73;;;1.43;;
10831;SDS011;5469;48.574;8.768;2023-04-06T12:21:03;2.47;;;2.20;;
10831;SDS011;5469;48.574;8.768;2023-04-06T12:23:37;2.43;;;1.70;;
10831;SDS011;5469;48.574;8.768;2023-04-06T12:26:10;1.93;;;1.77;;
10831;SDS011;5469;48.574;8.768;2023-04-06T12:28:45;1.70;;;1.60;;
10831;SDS011;5469;48.574;8.768;2023-04-06T12:31:19;4.20;;;1.87;;
10831;SDS011;5469;48.574;8.768;2023-04-06T12:33:54;1.97;;;1.60;;
10831;SDS011;5469;48.574;8.768;2023-04-06T12:36:27;3.90;;;2.17;;
10831;SDS011;5469;48.574;8.768;2023-04-06T12:39:01;3.77;;;2.07;;
10831;SDS011;5469;48.574;8.768;2023-04-06T12:41:34;2.60;;;1.80;;
10831;SDS011;5469;48.574;8.768;2023-04-06T12:44:09;3.57;;;1.90;;
10831;SDS011;5469;48.574;8.768;2023-04-06T12:46:43;1.50;;;1.40;;
10831;SDS011;5469;48.574;8.768;2023-04-06T12:49:17;3.37;;;1.80;;
10831;SDS011;5469;48.574;8.768;2023-04-06T12:51:50;2.57;;;1.90;;
10831;SDS011;5469;48.574;8.768;2023-04-06T12:54:24;2.77;;;1.87;;
10831;SDS011;5469;48.574;8.768;2023-04-06T12:56:58;1.63;;;1.53;;
10831;SDS011;5469;48.574;8.768;2023-04-06T12:59:34;3.23;;;2.20;;
10831;SDS011;5469;48.574;8.768;2023-04-06T13:02:08;1.53;;;1.40;;
10831;SDS011;5469;48.574;8.768;2023-04-06T13:04:42;2.53;;;1.90;;
10831;SDS011;5469;48.574;8.768;2023-04-06T13:07:15;1.73;;;1.47;;
10831;SDS011;5469;48.574;8.768;2023-04-06T13:09:49;1.77;;;1.67;;
10831;SDS011;5469;48.574;8.768;2023-04-06T13:12:23;2.87;;;1.70;;
10831;SDS011;5469;48.574;8.768;2023-04-06T13:14:59;2.40;;;2.20;;
10831;SDS011;5469;48.574;8.768;2023-04-06T13:17:32;4.07;;;1.90;;
10831;SDS011;5469;48.574;8.768;2023-04-06T13:20:06;2.43;;;1.80;;
10831;SDS011;5469;48.574;8.768;2023-04-06T13:22:40;3.20;;;1.90;;
10831;SDS011;5469;48.574;8.768;2023-04-06T13:25:14;2.10;;;1.70;;
10831;SDS011;5469;48.574;8.768;2023-04-06T13:27:47;2.20;;;2.00;;
10831;SDS011;5469;48.574;8.768;2023-04-06T13:30:23;3.90;;;1.90;;
10831;SDS011;5469;48.574;8.768;2023-04-06T13:32:56;1.97;;;1.73;;
10831;SDS011;5469;48.574;8.768;2023-04-06T13:35:30;2.50;;;1.90;;
10831;SDS011;5469;48.574;8.768;2023-04-06T13:38:03;1.63;;;1.50;;
10831;SDS011;5469;48.574;8.768;2023-04-06T13:40:38;3.47;;;1.73;;
10831;SDS011;5469;48.574;8.768;2023-04-06T13:43:11;2.13;;;1.53;;
10831;SDS011;5469;48.574;8.768;2023-04-06T13:45:49;3.43;;;1.93;;
10831;SDS011;5469;48.574;8.768;2023-04-06T13:48:24;2.57;;;1.67;;
10831;SDS011;5469;48.574;8.768;2023-04-06T13:50:58;1.83;;;1.50;;
10831;SDS011;5469;48.574;8.768;2023-04-06T13:53:41;1.80;;;1.60;;
10831;SDS011;5469;48.574;8.768;2023-04-06T13:56:14;2.23;;;1.63;;
10831;SDS011;5469;48.574;8.768;2023-04-06T13:58:48;2.73;;;2.33;;
10831;SDS011;5469;48.574;8.768;2023-04-06T14:01:23;2.87;;;2.30;;
10831;SDS011;5469;48.574;8.768;2023-04-06T14:03:58;2.03;;;1.83;;
10831;SDS011;5469;48.574;8.768;2023-04-06T14:06:32;4.03;;;2.07;;
10831;SDS011;5469;48.574;8.768;2023-04-06T14:09:05;2.40;;;1.90;;
10831;SDS011;5469;48.574;8.768;2023-04-06T14:11:39;3.33;;;2.10;;
10831;SDS011;5469;48.574;8.768;2023-04-06T14:14:12;2.63;;;2.10;;
10831;SDS011;5469;48.574;8.768;2023-04-06T14:16:47;2.47;;;2.00;;
10831;SDS011;5469;48.574;8.768;2023-04-06T14:19:21;6.07;;;2.13;;
10831;SDS011;5469;48.574;8.768;2023-04-06T14:21:54;3.33;;;2.40;;
10831;SDS011;5469;48.574;8.768;2023-04-06T14:24:28;2.60;;;1.70;;
10831;SDS011;5469;48.574;8.768;2023-04-06T14:27:01;2.97;;;1.80;;
10831;SDS011;5469;48.574;8.768;2023-04-06T14:29:35;2.07;;;1.93;;
10831;SDS011;5469;48.574;8.768;2023-04-06T14:32:10;1.90;;;1.70;;
10831;SDS011;5469;48.574;8.768;2023-04-06T14:34:43;3.93;;;2.37;;
10831;SDS011;5469;48.574;8.768;2023-04-06T14:37:17;2.13;;;1.57;;
10831;SDS011;5469;48.574;8.768;2023-04-06T14:39:52;2.37;;;2.00;;
10831;SDS011;5469;48.574;8.768;2023-04-06T14:42:25;2.63;;;1.90;;
10831;SDS011;5469;48.574;8.768;2023-04-06T14:44:59;2.17;;;1.57;;
10831;SDS011;5469;48.574;8.768;2023-04-06T14:47:34;1.60;;;1.50;;
10831;SDS011;5469;48.574;8.768;2023-04-06T14:50:07;2.07;;;1.83;;
10831;SDS011;5469;48.574;8.768;2023-04-06T14:52:42;2.67;;;1.90;;
10831;SDS011;5469;48.574;8.768;2023-04-06T14:55:15;2.10;;;1.70;;
10831;SDS011;5469;48.574;8.768;2023-04-06T14:57:49;2.03;;;1.70;;
10831;SDS011;5469;48.574;8.768;2023-04-06T15:00:22;1.23;;;1.13;;
10831;SDS011;5469;48.574;8.768;2023-04-06T15:02:57;1.90;;;1.63;;
10831;SDS011;5469;48.574;8.768;2023-04-06T15:05:31;2.47;;;1.90;;
10831;SDS011;5469;48.574;8.768;2023-04-06T15:08:06;3.23;;;2.10;;
10831;SDS011;5469;48.574;8.768;2023-04-06T15:10:40;3.20;;;2.20;;
10831;SDS011;5469;48.574;8.768;2023-04-06T15:13:14;2.97;;;1.83;;
10831;SDS011;5469;48.574;8.768;2023-04-06T15:15:49;5.40;;;1.87;;
10831;SDS011;5469;48.574;8.768;2023-04-06T15:18:24;5.47;;;2.37;;
10831;SDS011;5469;48.574;8.768;2023-04-06T15:20:58;4.53;;;1.87;;
10831;SDS011;5469;48.574;8.768;2023-04-06T15:23:32;3.97;;;2.10;;
10831;SDS011;5469;48.574;8.768;2023-04-06T15:26:06;4.30;;;2.10;;
10831;SDS011;5469;48.574;8.768;2023-04-06T15:28:39;3.70;;;2.17;;
10831;SDS011;5469;48.574;8.768;2023-04-06T15:31:13;3.97;;;2.13;;
10831;SDS011;5469;48.574;8.768;2023-04-06T15:33:48;1.73;;;1.53;;
10831;SDS011;5469;48.574;8.768;2023-04-06T15:36:23;3.80;;;1.93;;
10831;SDS011;5469;48.574;8.768;2023-04-06T15:38:58;2.73;;;1.77;;
10831;SDS011;5469;48.574;8.768;2023-04-06T15:41:32;2.43;;;1.80;;
10831;SDS011;5469;48.574;8.768;2023-04-06T15:44:05;2.17;;;1.60;;